Terminal Aerodrome Forecast
Issued by NWS

Home | Current Version | Previous Version | Text Only | Print | Product List | Glossary On
Versions: 1 2 3 4 5 6 7 8 9 10 11 12 13 14 15 16 17 18 19 20 21 22 23 24 25 26 27 28 29 30 31 32 33 34 35 36 37
000
FTUS41 KBTV 280900 AAA
TAFPBG
TAF AMD
KPBG 280911Z 2809/2906 00000KT 5SM BR OVC015
     FM281100 02004KT 3SM RA BR VCTS OVC015CB
      TEMPO 2811/2812 VRB15G25KT 1 1/2SM +TSRA
     FM281400 36007KT 3SM -RA BR VCTS OVC020CB
     FM290000 34008KT 4SM -SHRA BR OVC015=

USA.gov is the U.S. government's official web portal to all federal, state and local government web resources and services.